Wetterstation Rottenburg Seebronn / 442m msl / http://mut-lambrecht.de
LETZTE AKTUALISIERUNG UM: 13:35 DATUM: Juli 17 2018, time of next update: 13:40
Aktuelles Wetterpartly cloudy - showers in the vicinity; thunder in the vicinity; Cumulonimbus clouds observed Aktuelle Temperatur 26.3°C (79.3°F) (Hitze-Index 26.7°C ), Apparent temp 24.3°C
Höchsttemperatur (seit Mitternacht)27.7°C um: 13:11 Tiefsttemperatur (seit Mitternacht)14.0°C um: 05:07
Windgeschwindigkeit (10 Minuten )18.5 kmh (10.0 kts) Windrichtung (Dir) (10 Minuten )S (189°)
Hitze-Index 26.7°C Windspitzen (letzte Std)30.3 kmh (16.4 kts) um: 13:13
Windspitzen (seit Mitternacht)30.3 kmh (16.4 kts) um: 13:13 Höchstes Windmittel / Minute (seit Mitternacht)18.2 kmh (9.8 kts) um: 13:23
Regenmenge (letzte Std)0.0 mm Regenmenge (seit Mitternacht)0.0 mm (0.00 in.)---
Regenmenge diesen Monat 18.2 mm (0.72 in.) Regenmenge seit Jahresbeginn 322.9 mm (12.71 in.)
Höchste Regenmenge pro Minute (letzte Std)0.0 mm/min Höchste Regenmenge pro Stunde (letzte 6 Std)0.0 mm/stunde
Regenmenge Gestern 0.0 mm Taupunkt 12.7°C (Wet Bulb :18.3°C )
Luftfeuchtigkeit 43 %, Humidex 28.9°C Aktueller Luftdruck (auf Meereshöhe bezogen)1011.4 hPa
Luftdrucktendenz -0.2 hPa (letzte Std) Trend (letzte 1 Std)gleichbleibend
Luftdrucktendenz (letzte 12 Std)+2.4 hPa Luftdrucktendenz (letzte 6 Std)+2.0 hPa



Weather report/warning/Metars

Stuttgart-Echterdingen, Germany (EDDS) 48-41N 009-13E 391M
Jul 17, 2018 - 07:20 AM EDT / 2018.07.17 1120 UTC
Wind: from the S (170 degrees) at 6 MPH (5 KT):0
Visibility: greater than 7 mile(s):0
Sky conditions: partly cloudy
Weather: showers in the vicinity; thunder in the vicinity; Cumulonimbus clouds observed
Temperature: 75 F (24 C)
Dew Point: 55 F (13 C)
Relative Humidity: 50%
Pressure (altimeter): 30.00 in. Hg (1016 hPa)
ob: EDDS 171120Z 17005KT 9999 VCSH VCTS SCT068CB SCT300 24/13 Q1016 RETSRA NOSIG
cycle: 11
Karlsruhe, Baden Wurttemberg, Germany (EDSB) 48-46-43N 008-04-47E
Jul 17, 2018 - 07:20 AM EDT / 2018.07.17 1120 UTC
Wind: from the WSW (240 degrees) at 10 MPH (9 KT) (direction variable):0
Visibility: greater than 7 mile(s):0
Temperature: 84 F (29 C)
Dew Point: 53 F (12 C)
Relative Humidity: 34%
Pressure (altimeter): 29.97 in. Hg (1015 hPa)
ob: EDSB 171120Z 24009KT 200V280 CAVOK 29/12 Q1015
cycle: 11
Lahr, CAN-AFB, Germany (EDTL) 48-22-09N 007-49-40E
Jul 17, 2018 - 07:20 AM EDT / 2018.07.17 1120 UTC
Wind: from the WSW (250 degrees) at 7 MPH (6 KT) (direction variable):0
Visibility: greater than 7 mile(s):0
Temperature: 84 F (29 C)
Dew Point: 59 F (15 C)
Relative Humidity: 42%
Pressure (altimeter): 29.97 in. Hg (1015 hPa)
ob: EDTL 171120Z 25006KT 210V300 CAVOK 29/15 Q1015
cycle: 11
Laupheim, Germany (ETHL) 48-13N 009-55E 550M
Jul 17, 2018 - 07:20 AM EDT / 2018.07.17 1120 UTC
Wind: from the S (170 degrees) at 8 MPH (7 KT):0
Visibility: greater than 7 mile(s):0
Sky conditions: mostly cloudy
Weather: Cumulonimbus clouds observed
Temperature: 73 F (23 C)
Dew Point: 51 F (11 C)
Relative Humidity: 46%
Pressure (altimeter): 30.00 in. Hg (1016 hPa)
ob: ETHL 171120Z 17007KT 9999 FEW040 SCT050CB BKN240 23/11 Q1016 BLU+BLU+ TEMPO WHT
cycle: 11


Klicken Sie hier, um zu den Durchschnitts-, Extrem-, Monats- oder Tageswerten zu gelangen


Die Wetterdaten werden alle 5 Minuten aktualisiert.
Die 3 stündige Echtzeitgrafik wird jede Minute aktualisiert.
Bei der 3 stündige Echtzeitgrafik sind derzeit die Skalenfarben von Winddurchschnitt u. Windböen vertauscht. (Softwarebug)

Drücken Sie gegebenenfalls auf "Aktualisieren" in Ihrem Browser, um die aktuellsten Daten zu erhalten.